Time;durP1;ratioP1;P1;durP2;ratioP2;P2;SDS_P1;SDS_P2;PMS_P1;PMS_P2;Temp;Humidity;BMP_temperature;BMP_pressure;BME280_temperature;BME280_humidity;BME280_pressure;Samples;Min_cycle;Max_cycle;Signal;HPM_P1;HPM_P2
2023/06/26 00:01:15;;;;;;;31.77;8.20;;;20.80;99.90;;;;;;5054396;28;20075;-57
2023/06/26 00:03:40;;;;;;;8.68;6.25;;;20.70;99.90;;;;;;5054111;28;20013;-58
2023/06/26 00:06:06;;;;;;;10.18;7.22;;;20.70;99.90;;;;;;5054001;28;20483;-58
2023/06/26 00:08:31;;;;;;;10.60;6.13;;;20.70;99.90;;;;;;5054138;28;20028;-61
2023/06/26 00:10:57;;;;;;;11.43;6.03;;;20.60;99.90;;;;;;5054181;28;20029;-58
2023/06/26 00:13:24;;;;;;;11.07;6.63;;;20.60;99.90;;;;;;5053870;28;20532;-58
2023/06/26 00:15:50;;;;;;;10.15;6.63;;;20.60;99.90;;;;;;5053961;28;20041;-60
2023/06/26 00:18:16;;;;;;;9.20;6.53;;;20.60;99.90;;;;;;5053679;28;20017;-59
2023/06/26 00:20:41;;;;;;;10.57;6.97;;;20.50;99.90;;;;;;5053792;28;20028;-58
2023/06/26 00:23:07;;;;;;;11.13;6.43;;;20.50;99.90;;;;;;5053746;28;20042;-60
2023/06/26 00:25:33;;;;;;;9.02;6.15;;;20.50;99.90;;;;;;5053632;28;20100;-61
2023/06/26 00:27:59;;;;;;;11.50;6.20;;;20.50;99.90;;;;;;5053489;28;20021;-59
2023/06/26 00:30:25;;;;;;;12.88;7.13;;;20.40;99.90;;;;;;5053795;28;20501;-60
2023/06/26 00:32:51;;;;;;;12.10;7.57;;;20.30;99.90;;;;;;5053483;28;20036;-57
2023/06/26 00:35:16;;;;;;;13.07;7.00;;;20.30;99.90;;;;;;5053589;28;20021;-58
2023/06/26 00:37:42;;;;;;;10.75;7.50;;;20.20;99.90;;;;;;5053236;28;20047;-58
2023/06/26 00:40:08;;;;;;;15.07;7.88;;;20.10;99.90;;;;;;5053503;28;20378;-60
2023/06/26 00:42:34;;;;;;;9.32;6.50;;;20.00;99.90;;;;;;5053270;28;20036;-61
2023/06/26 00:45:00;;;;;;;12.60;7.15;;;19.90;99.90;;;;;;5053477;28;20024;-58
2023/06/26 00:47:26;;;;;;;13.23;6.72;;;19.90;99.90;;;;;;5053385;28;20029;-58
2023/06/26 00:49:53;;;;;;;15.73;7.75;;;19.90;99.90;;;;;;5052934;28;20024;-56
2023/06/26 00:52:18;;;;;;;11.27;6.35;;;19.70;99.90;;;;;;5053452;28;20079;-56
2023/06/26 00:54:44;;;;;;;11.95;7.55;;;19.70;99.90;;;;;;5053120;28;20414;-57
2023/06/26 00:57:10;;;;;;;16.35;8.07;;;19.70;99.90;;;;;;5052742;28;20037;-58
2023/06/26 00:59:35;;;;;;;10.68;6.75;;;19.60;99.90;;;;;;5052880;28;20103;-60
2023/06/26 01:02:01;;;;;;;14.70;7.07;;;19.60;99.90;;;;;;5053149;28;20398;-59
2023/06/26 01:04:27;;;;;;;10.88;7.40;;;19.50;99.90;;;;;;5052913;28;20025;-60
2023/06/26 01:06:54;;;;;;;9.68;7.00;;;19.50;99.90;;;;;;5052659;28;20100;-59
2023/06/26 01:09:20;;;;;;;12.68;7.18;;;19.50;99.90;;;;;;5053005;28;20024;-60
2023/06/26 01:11:46;;;;;;;12.02;7.22;;;19.40;99.90;;;;;;5052728;28;20386;-60
2023/06/26 01:14:12;;;;;;;13.43;8.23;;;19.40;99.90;;;;;;5052921;28;20017;-60
2023/06/26 01:16:40;;;;;;;11.30;7.25;;;19.40;99.90;;;;;;5052469;28;20096;-59
2023/06/26 01:19:24;;;;;;;10.55;7.18;;;19.30;99.90;;;;;;5052757;28;20071;-59
2023/06/26 01:21:51;;;;;;;;;;;19.20;99.90;;;;;;5053219;28;20068;-60
2023/06/26 01:24:21;;;;;;;10.65;7.07;;;19.20;99.90;;;;;;5052572;28;19901;-58
2023/06/26 01:26:49;;;;;;;13.07;7.38;;;19.20;99.90;;;;;;5052378;28;20025;-60
2023/06/26 01:29:16;;;;;;;14.30;7.40;;;19.10;99.90;;;;;;5052526;28;20021;-59
2023/06/26 01:31:46;;;;;;;14.10;8.27;;;19.20;99.90;;;;;;5052517;28;20380;-58
2023/06/26 01:34:12;;;;;;;15.82;7.40;;;19.10;99.90;;;;;;5052449;28;20051;-60
2023/06/26 01:36:38;;;;;;;12.73;7.25;;;19.10;99.90;;;;;;5051946;28;20035;-59
2023/06/26 01:39:03;;;;;;;12.75;8.30;;;19.00;99.90;;;;;;5052418;28;20032;-57
2023/06/26 01:41:29;;;;;;;11.18;7.43;;;18.90;99.90;;;;;;5052322;28;20029;-60
2023/06/26 01:44:09;;;;;;;13.35;7.95;;;18.90;99.90;;;;;;5052268;28;20021;-58
2023/06/26 01:46:53;;;;;;;12.30;7.90;;;18.80;99.90;;;;;;5052116;28;20025;-58
2023/06/26 01:49:40;;;;;;;11.40;7.78;;;18.80;99.90;;;;;;5052252;28;20494;-57
2023/06/26 01:52:25;;;;;;;14.63;7.57;;;18.70;99.90;;;;;;5052218;28;20021;-57
2023/06/26 01:55:17;;;;;;;11.98;8.18;;;18.70;99.90;;;;;;5052135;28;20132;-60
2023/06/26 01:57:45;;;;;;;12.85;7.43;;;18.70;99.90;;;;;;5051787;28;20471;-60
2023/06/26 02:00:12;;;;;;;10.95;7.53;;;18.60;99.90;;;;;;5051664;28;20120;-60
2023/06/26 02:02:40;;;;;;;13.13;7.97;;;18.60;99.90;;;;;;5051512;28;20036;-62
2023/06/26 02:05:06;;;;;;;12.15;7.93;;;18.60;99.90;;;;;;5051968;28;20013;-58
2023/06/26 02:07:31;;;;;;;16.35;8.32;;;18.50;99.90;;;;;;5051672;28;20025;-56
2023/06/26 02:09:57;;;;;;;14.48;8.05;;;18.50;99.90;;;;;;5051786;28;20087;-59
2023/06/26 02:12:22;;;;;;;13.27;8.43;;;18.50;99.90;;;;;;5052170;28;20020;-57
2023/06/26 02:14:49;;;;;;;11.93;7.55;;;18.50;99.90;;;;;;5051772;28;20021;-55
2023/06/26 02:17:15;;;;;;;13.10;8.38;;;18.50;99.90;;;;;;5051476;28;20016;-60
2023/06/26 02:19:47;;;;;;;12.73;7.88;;;18.50;99.90;;;;;;5051580;28;20499;-57
2023/06/26 02:22:15;;;;;;;12.35;7.78;;;18.50;99.90;;;;;;5051762;28;20021;-60
2023/06/26 02:24:42;;;;;;;13.82;8.13;;;18.50;99.90;;;;;;5051482;28;20013;-58
2023/06/26 02:27:08;;;;;;;16.08;7.80;;;18.50;99.90;;;;;;5051428;28;20032;-60
2023/06/26 02:29:34;;;;;;;14.30;8.57;;;18.50;99.90;;;;;;5051403;28;20025;-60
2023/06/26 02:31:59;;;;;;;12.75;7.95;;;18.50;99.90;;;;;;5051513;28;20426;-59
2023/06/26 02:34:25;;;;;;;11.35;7.95;;;18.40;99.90;;;;;;5051401;28;20020;-60
2023/06/26 02:36:50;;;;;;;13.68;8.82;;;18.50;99.90;;;;;;5051085;28;20028;-60
2023/06/26 02:39:16;;;;;;;11.80;7.85;;;18.40;99.90;;;;;;5051352;28;20025;-60
2023/06/26 02:41:43;;;;;;;13.38;8.50;;;18.30;99.90;;;;;;5051230;28;20021;-58
2023/06/26 02:44:10;;;;;;;13.18;8.27;;;18.30;99.90;;;;;;5051267;28;20059;-61
2023/06/26 02:46:36;;;;;;;15.90;8.63;;;18.30;99.90;;;;;;5051023;28;20059;-58
2023/06/26 02:49:01;;;;;;;11.52;7.90;;;18.20;99.90;;;;;;5051308;28;20025;-57
2023/06/26 02:51:27;;;;;;;12.82;7.90;;;18.20;99.90;;;;;;5051291;28;20017;-56
2023/06/26 02:53:52;;;;;;;11.73;7.90;;;18.20;99.90;;;;;;5051143;28;20059;-59
2023/06/26 02:56:18;;;;;;;13.98;8.57;;;18.30;99.90;;;;;;5051122;28;20028;-60
2023/06/26 02:58:43;;;;;;;13.02;8.05;;;18.30;99.90;;;;;;5051110;28;20021;-59
2023/06/26 03:01:09;;;;;;;14.05;8.55;;;18.40;99.90;;;;;;5051220;28;20017;-60
2023/06/26 03:03:40;;;;;;;12.18;8.57;;;18.30;99.90;;;;;;5051029;28;20032;-60
2023/06/26 03:06:06;;;;;;;14.57;7.70;;;18.30;99.90;;;;;;5050992;28;20009;-58
2023/06/26 03:08:32;;;;;;;12.98;8.38;;;18.30;99.90;;;;;;5051040;28;20103;-58
2023/06/26 03:10:57;;;;;;;13.07;8.85;;;18.40;99.90;;;;;;5051268;28;20055;-60
2023/06/26 03:13:23;;;;;;;11.80;8.40;;;18.30;99.90;;;;;;5054403;28;20056;-60
2023/06/26 03:15:48;;;;;;;18.58;8.27;;;18.30;99.90;;;;;;5055141;28;20025;-59
2023/06/26 03:18:14;;;;;;;15.90;8.27;;;18.20;99.90;;;;;;5054930;28;20024;-57
2023/06/26 03:20:39;;;;;;;14.45;7.88;;;18.20;99.90;;;;;;5054939;28;20017;-57
2023/06/26 03:23:05;;;;;;;14.13;8.18;;;18.10;99.90;;;;;;5054924;28;20058;-59
2023/06/26 03:25:30;;;;;;;13.55;8.02;;;18.20;99.90;;;;;;5054887;28;20058;-59
2023/06/26 03:27:56;;;;;;;10.10;7.13;;;18.20;99.90;;;;;;5054855;28;20021;-57
2023/06/26 03:30:21;;;;;;;12.93;7.82;;;18.30;99.90;;;;;;5055041;28;20438;-57
2023/06/26 03:32:47;;;;;;;11.38;7.30;;;18.30;99.90;;;;;;5054836;28;20492;-56
2023/06/26 03:35:12;;;;;;;12.82;7.40;;;18.50;99.90;;;;;;5054767;28;20102;-56
2023/06/26 03:37:38;;;;;;;11.82;6.70;;;18.80;99.90;;;;;;5054691;28;20060;-59
2023/06/26 03:40:04;;;;;;;12.45;6.75;;;19.10;99.90;;;;;;5054567;28;20037;-58
2023/06/26 03:42:30;;;;;;;9.55;6.55;;;19.30;99.90;;;;;;5054635;28;20024;-56
2023/06/26 03:44:55;;;;;;;16.33;6.65;;;19.60;99.90;;;;;;5054804;28;20378;-56
2023/06/26 03:47:21;;;;;;;12.13;6.28;;;19.80;99.90;;;;;;5054610;28;20032;-59
2023/06/26 03:49:46;;;;;;;13.88;6.63;;;20.10;99.90;;;;;;5054475;28;20025;-59
2023/06/26 03:52:13;;;;;;;17.88;5.95;;;20.10;99.90;;;;;;5054443;28;20392;-59
2023/06/26 03:54:38;;;;;;;10.90;6.07;;;20.30;99.90;;;;;;5054426;28;20092;-52
2023/06/26 03:57:04;;;;;;;11.45;5.47;;;20.40;99.90;;;;;;5054223;28;20107;-59
2023/06/26 03:59:30;;;;;;;10.23;5.38;;;20.50;99.90;;;;;;5054239;28;20475;-60
2023/06/26 04:01:56;;;;;;;13.07;5.43;;;20.40;99.90;;;;;;5054296;28;20100;-60
2023/06/26 04:04:21;;;;;;;12.35;6.07;;;20.50;99.90;;;;;;5054181;28;20095;-60
2023/06/26 04:06:47;;;;;;;11.95;6.15;;;20.50;99.90;;;;;;5053884;28;20446;-59
2023/06/26 04:09:13;;;;;;;10.90;6.18;;;20.70;99.90;;;;;;5054083;28;20033;-58
2023/06/26 04:11:38;;;;;;;9.38;6.35;;;20.70;99.90;;;;;;5054095;28;20084;-60
2023/06/26 04:14:04;;;;;;;8.75;5.65;;;20.70;99.90;;;;;;5054011;28;20108;-61
2023/06/26 04:16:30;;;;;;;12.18;6.53;;;20.80;99.90;;;;;;5053857;28;20025;-59
2023/06/26 04:18:56;;;;;;;11.18;5.95;;;20.70;99.90;;;;;;5053873;28;20040;-60
2023/06/26 04:21:24;;;;;;;8.65;5.65;;;20.70;99.90;;;;;;5053904;28;20040;-58
2023/06/26 04:23:50;;;;;;;8.65;5.80;;;20.70;99.90;;;;;;5052988;28;20010;-55
2023/06/26 04:26:16;;;;;;;9.70;5.68;;;20.60;99.90;;;;;;5053486;28;20104;-60
2023/06/26 04:28:42;;;;;;;9.30;5.80;;;20.50;99.90;;;;;;5053578;28;20108;-60
2023/06/26 04:31:08;;;;;;;13.48;6.70;;;20.50;99.90;;;;;;5053758;28;20096;-60
2023/06/26 04:33:36;;;;;;;15.73;6.05;;;20.60;99.90;;;;;;5053545;28;20032;-57
2023/06/26 04:36:03;;;;;;;9.55;5.55;;;20.70;99.90;;;;;;5053731;28;20021;-60
2023/06/26 04:38:29;;;;;;;9.68;5.68;;;20.80;99.90;;;;;;5053572;28;20013;-59
2023/06/26 04:40:55;;;;;;;11.40;6.32;;;20.80;99.90;;;;;;5053622;28;20025;-58
2023/06/26 04:43:20;;;;;;;10.02;5.95;;;20.90;99.90;;;;;;5053450;28;20378;-58
2023/06/26 04:45:46;;;;;;;14.63;5.85;;;21.00;99.90;;;;;;5053256;28;20068;-60
2023/06/26 04:48:11;;;;;;;9.43;5.47;;;21.00;99.90;;;;;;5053157;28;20031;-58
2023/06/26 04:50:37;;;;;;;10.52;6.00;;;21.10;99.90;;;;;;5053346;28;20017;-58
2023/06/26 04:53:02;;;;;;;13.13;5.88;;;21.10;99.90;;;;;;5053437;28;20521;-58
2023/06/26 04:55:28;;;;;;;7.65;5.03;;;21.20;99.90;;;;;;5053279;28;20577;-59
2023/06/26 04:57:54;;;;;;;14.63;5.07;;;21.20;99.90;;;;;;5052908;28;20029;-59
2023/06/26 05:00:19;;;;;;;12.77;5.25;;;21.30;99.90;;;;;;5053308;28;20021;-58
2023/06/26 05:02:45;;;;;;;10.85;4.38;;;21.30;99.90;;;;;;5052994;28;20052;-56
2023/06/26 05:05:11;;;;;;;8.27;4.57;;;21.30;99.90;;;;;;5053038;28;20021;-60
2023/06/26 05:07:37;;;;;;;8.63;4.60;;;21.30;99.90;;;;;;5052877;28;20028;-57
2023/06/26 05:10:03;;;;;;;10.00;5.47;;;21.40;99.90;;;;;;5053008;28;20025;-61
2023/06/26 05:12:29;;;;;;;8.82;4.90;;;21.40;99.90;;;;;;5052874;28;20375;-56
2023/06/26 05:14:54;;;;;;;15.82;5.85;;;21.40;99.90;;;;;;5052891;28;20057;-59
2023/06/26 05:17:20;;;;;;;9.27;5.50;;;21.40;99.90;;;;;;5052594;28;20021;-60
2023/06/26 05:19:46;;;;;;;12.07;5.28;;;21.50;99.90;;;;;;5052730;28;20024;-58
2023/06/26 05:22:13;;;;;;;11.02;5.22;;;21.50;99.90;;;;;;5052811;28;20017;-58
2023/06/26 05:24:39;;;;;;;7.90;4.63;;;21.50;99.90;;;;;;5052572;28;20375;-56
2023/06/26 05:27:06;;;;;;;10.40;4.95;;;21.50;99.90;;;;;;5052535;28;20475;-55
2023/06/26 05:29:32;;;;;;;8.70;4.70;;;21.50;99.90;;;;;;5052582;28;20021;-56
2023/06/26 05:31:58;;;;;;;9.93;4.63;;;21.50;99.90;;;;;;5052599;28;20382;-57
2023/06/26 05:34:24;;;;;;;6.90;4.78;;;21.40;99.90;;;;;;5052481;28;20096;-59
2023/06/26 05:36:57;;;;;;;10.55;4.65;;;21.40;99.90;;;;;;5051135;28;20103;-60
2023/06/26 05:39:22;;;;;;;14.20;4.68;;;21.50;99.90;;;;;;5053084;28;20067;-59
2023/06/26 05:41:48;;;;;;;8.40;4.55;;;21.50;99.90;;;;;;5052309;28;20033;-58
2023/06/26 05:44:14;;;;;;;12.85;4.93;;;21.40;99.90;;;;;;5052297;28;20056;-61
2023/06/26 05:46:39;;;;;;;10.18;4.97;;;21.50;99.90;;;;;;5052000;28;20025;-57
2023/06/26 05:49:05;;;;;;;7.40;4.88;;;21.40;99.90;;;;;;5052304;28;20075;-59
2023/06/26 05:51:31;;;;;;;10.38;4.20;;;21.40;99.90;;;;;;5052295;28;20032;-58
2023/06/26 05:53:57;;;;;;;13.77;4.55;;;21.40;99.90;;;;;;5052061;28;20078;-60
2023/06/26 05:56:22;;;;;;;7.78;4.40;;;21.40;99.90;;;;;;5052166;28;20023;-60
2023/06/26 05:58:49;;;;;;;13.25;4.88;;;21.40;99.90;;;;;;5051940;28;20131;-61
2023/06/26 06:01:15;;;;;;;9.63;4.55;;;21.30;99.90;;;;;;5051966;28;20419;-59
2023/06/26 06:03:40;;;;;;;7.63;4.00;;;21.30;99.90;;;;;;5052005;28;20059;-60
2023/06/26 06:06:06;;;;;;;10.98;4.72;;;21.30;99.90;;;;;;5051745;28;20017;-58
2023/06/26 06:08:32;;;;;;;10.15;4.80;;;21.40;99.90;;;;;;5051847;28;20037;-61
2023/06/26 06:10:59;;;;;;;9.20;4.75;;;21.50;99.90;;;;;;5051979;28;20028;-61
2023/06/26 06:13:24;;;;;;;9.68;4.63;;;21.40;99.90;;;;;;5051811;28;20028;-58
2023/06/26 06:15:50;;;;;;;11.70;4.47;;;21.30;99.90;;;;;;5051655;28;20036;-59
2023/06/26 06:18:15;;;;;;;6.95;3.90;;;21.30;99.90;;;;;;5051514;28;20086;-60
2023/06/26 06:20:41;;;;;;;11.70;4.72;;;21.40;99.90;;;;;;5051662;28;20438;-59
2023/06/26 06:23:07;;;;;;;11.20;5.22;;;21.40;99.90;;;;;;5050506;28;20736;-61
2023/06/26 06:25:32;;;;;;;14.88;4.50;;;21.40;99.90;;;;;;5051560;28;20063;-53
2023/06/26 06:27:58;;;;;;;15.55;4.68;;;21.40;99.90;;;;;;5051399;28;20378;-56
2023/06/26 06:30:23;;;;;;;14.80;4.53;;;21.40;99.90;;;;;;5051480;28;20025;-55
2023/06/26 06:32:52;;;;;;;8.32;4.43;;;21.30;99.90;;;;;;5051377;28;20063;-60
2023/06/26 06:35:21;;;;;;;9.52;4.32;;;21.20;99.90;;;;;;5051450;28;20387;-58
2023/06/26 06:37:46;;;;;;;11.13;4.50;;;21.10;99.90;;;;;;5051124;28;20100;-61
2023/06/26 06:40:13;;;;;;;14.45;4.30;;;21.00;99.90;;;;;;5051329;28;20112;-58
2023/06/26 06:42:38;;;;;;;7.93;3.92;;;21.00;99.90;;;;;;5051256;28;20032;-60
2023/06/26 06:45:04;;;;;;;15.60;4.82;;;21.00;99.90;;;;;;5051224;28;20091;-57
2023/06/26 06:47:31;;;;;;;9.63;4.05;;;21.00;99.90;;;;;;5051738;28;20068;-59
2023/06/26 06:49:57;;;;;;;14.43;5.00;;;21.00;99.90;;;;;;5055551;28;20017;-61
2023/06/26 06:52:23;;;;;;;17.95;5.00;;;21.00;99.90;;;;;;5053600;28;20024;-60
2023/06/26 06:54:54;;;;;;;12.75;4.20;;;20.90;99.90;;;;;;5051384;28;20046;-61
2023/06/26 06:57:20;;;;;;;9.77;3.88;;;20.90;99.90;;;;;;5050974;28;20029;-60
2023/06/26 06:59:47;;;;;;;14.05;4.50;;;20.80;99.90;;;;;;5051130;28;20029;-59
2023/06/26 07:02:13;;;;;;;11.05;4.68;;;20.80;99.90;;;;;;5051480;28;20383;-61
2023/06/26 07:04:38;;;;;;;14.20;4.57;;;20.80;99.90;;;;;;5051322;28;20466;-61
2023/06/26 07:07:04;;;;;;;16.80;4.97;;;20.80;99.90;;;;;;5050994;28;20104;-61
2023/06/26 07:09:30;;;;;;;12.98;4.47;;;20.90;99.90;;;;;;5051159;28;20509;-61
2023/06/26 07:11:55;;;;;;;12.02;3.85;;;21.00;99.90;;;;;;5051105;28;20028;-53
2023/06/26 07:14:21;;;;;;;13.07;4.85;;;21.00;99.90;;;;;;5051096;28;20386;-59
2023/06/26 07:16:46;;;;;;;8.65;4.18;;;21.10;99.90;;;;;;5050758;28;20467;-61
2023/06/26 07:19:12;;;;;;;11.30;5.10;;;21.20;99.90;;;;;;5051065;28;20021;-58
2023/06/26 07:21:37;;;;;;;8.75;4.25;;;21.30;99.90;;;;;;5051023;28;20017;-61
2023/06/26 07:24:03;;;;;;;13.82;6.13;;;21.40;99.90;;;;;;5050951;28;20048;-61
2023/06/26 07:26:28;;;;;;;11.43;4.53;;;21.60;99.90;;;;;;5050746;28;20023;-56
2023/06/26 07:28:56;;;;;;;19.92;5.55;;;21.60;99.90;;;;;;5050818;28;20103;-59
2023/06/26 07:31:22;;;;;;;16.63;4.85;;;21.40;99.90;;;;;;5050962;28;20017;-60
2023/06/26 07:33:47;;;;;;;14.52;5.15;;;21.40;99.90;;;;;;5050858;28;20380;-60
2023/06/26 07:36:13;;;;;;;11.55;5.18;;;21.40;99.90;;;;;;5050739;28;20540;-59
2023/06/26 07:38:38;;;;;;;12.75;4.82;;;21.30;99.90;;;;;;5050699;28;20032;-60
2023/06/26 07:41:04;;;;;;;11.68;4.35;;;21.30;99.90;;;;;;5050724;28;20242;-61
2023/06/26 07:43:30;;;;;;;14.77;5.97;;;21.40;99.90;;;;;;5050718;28;20021;-61
2023/06/26 07:45:58;;;;;;;11.07;4.95;;;21.50;99.90;;;;;;5050771;28;20018;-60
2023/06/26 07:48:24;;;;;;;14.02;5.40;;;21.40;99.90;;;;;;5050890;28;20020;-59
2023/06/26 07:50:49;;;;;;;12.18;5.68;;;21.40;99.90;;;;;;5050841;28;20475;-55
2023/06/26 07:53:15;;;;;;;23.83;5.05;;;21.50;99.90;;;;;;5050674;28;20025;-53
2023/06/26 07:55:41;;;;;;;13.55;5.32;;;21.50;99.90;;;;;;5050524;28;20033;-61
2023/06/26 07:58:07;;;;;;;13.93;5.65;;;21.60;99.90;;;;;;5050448;28;20139;-57
2023/06/26 08:00:32;;;;;;;12.00;5.60;;;21.70;99.90;;;;;;5053796;28;20375;-59
2023/06/26 08:02:58;;;;;;;16.33;5.35;;;21.60;99.90;;;;;;5054228;28;20036;-61
2023/06/26 08:05:23;;;;;;;14.00;5.32;;;21.60;99.90;;;;;;5054171;28;20029;-57
2023/06/26 08:07:49;;;;;;;12.00;4.45;;;21.60;99.90;;;;;;5053946;28;20067;-57
2023/06/26 08:10:15;;;;;;;16.10;5.80;;;21.50;99.90;;;;;;5054058;28;20033;-59
2023/06/26 08:12:42;;;;;;;13.77;5.18;;;21.50;99.90;;;;;;5053892;28;20017;-61
2023/06/26 08:15:08;;;;;;;18.33;4.90;;;21.60;99.90;;;;;;5053995;28;20539;-60
2023/06/26 08:17:34;;;;;;;13.30;4.63;;;21.70;99.90;;;;;;5053858;28;20120;-59
2023/06/26 08:20:00;;;;;;;10.20;5.18;;;21.80;99.90;;;;;;5053897;28;20017;-61
2023/06/26 08:22:26;;;;;;;11.38;4.95;;;21.90;99.90;;;;;;5054002;28;20029;-58
2023/06/26 08:24:51;;;;;;;19.10;5.72;;;22.00;99.90;;;;;;5053739;28;20024;-58
2023/06/26 08:27:17;;;;;;;22.50;5.40;;;22.10;99.90;;;;;;5052406;28;20032;-61
2023/06/26 08:29:42;;;;;;;12.10;5.45;;;22.20;99.90;;;;;;5052440;28;20029;-59
2023/06/26 08:32:08;;;;;;;10.80;4.72;;;22.20;99.90;;;;;;5053783;28;20066;-58
2023/06/26 08:34:33;;;;;;;13.15;5.38;;;22.30;99.90;;;;;;5053552;28;20379;-55
2023/06/26 08:36:59;;;;;;;13.23;4.95;;;22.40;99.90;;;;;;5053380;28;20194;-59
2023/06/26 08:39:24;;;;;;;13.10;4.88;;;22.60;99.90;;;;;;5053616;28;20559;-59
2023/06/26 08:41:50;;;;;;;13.68;4.93;;;22.70;99.90;;;;;;5053433;28;20033;-61
2023/06/26 08:44:16;;;;;;;11.55;4.18;;;22.40;99.90;;;;;;5053438;28;20058;-61
2023/06/26 08:46:43;;;;;;;17.70;5.10;;;22.50;99.90;;;;;;5053162;28;20020;-60
2023/06/26 08:49:42;;;;;;;11.40;4.80;;;22.70;99.90;;;;;;5053419;28;20029;-61
2023/06/26 08:52:19;;;;;;;15.60;4.68;;;22.70;99.90;;;;;;5053404;28;20105;-62
2023/06/26 08:54:48;;;;;;;12.30;4.05;;;22.70;99.90;;;;;;5053218;28;20028;-61
2023/06/26 08:57:18;;;;;;;14.93;4.32;;;22.50;99.90;;;;;;5052935;28;20017;-58
2023/06/26 08:59:44;;;;;;;14.85;5.10;;;22.40;99.90;;;;;;5051745;28;20097;-59
2023/06/26 09:02:10;;;;;;;11.55;3.67;;;22.30;99.90;;;;;;5035268;28;20025;-60
2023/06/26 09:04:36;;;;;;;6.80;3.83;;;22.30;99.90;;;;;;5034998;28;20104;-60
2023/06/26 09:07:02;;;;;;;10.80;4.50;;;22.40;99.90;;;;;;5035080;28;20044;-60
2023/06/26 09:09:28;;;;;;;12.50;4.28;;;22.50;99.90;;;;;;5015054;28;20479;-61
2023/06/26 09:11:55;;;;;;;13.35;4.20;;;22.50;99.90;;;;;;5052533;28;20479;-60
2023/06/26 09:14:21;;;;;;;16.20;4.15;;;22.70;99.90;;;;;;5051422;28;20032;-61
2023/06/26 09:16:46;;;;;;;8.93;4.03;;;22.70;99.90;;;;;;5051006;28;20512;-58
2023/06/26 09:19:12;;;;;;;13.70;3.70;;;22.70;99.90;;;;;;5043251;28;20029;-61
2023/06/26 09:21:40;;;;;;;11.25;4.50;;;22.80;99.90;;;;;;5052636;28;20477;-59
2023/06/26 09:24:08;;;;;;;15.38;4.30;;;22.90;99.90;;;;;;5052619;28;20388;-61
2023/06/26 09:26:38;;;;;;;10.10;3.65;;;23.00;99.90;;;;;;5052474;28;20024;-59
2023/06/26 09:29:05;;;;;;;7.80;3.45;;;22.70;99.90;;;;;;5052739;28;20020;-61
2023/06/26 09:31:33;;;;;;;11.60;3.92;;;22.80;99.90;;;;;;5050848;28;20430;-59
2023/06/26 09:33:59;;;;;;;12.10;4.43;;;22.90;99.90;;;;;;5052493;28;20021;-58
2023/06/26 09:36:28;;;;;;;8.40;3.67;;;23.10;99.90;;;;;;5052359;28;20547;-54
2023/06/26 09:38:54;;;;;;;14.10;3.65;;;23.30;99.90;;;;;;5052193;28;20075;-59
2023/06/26 09:41:20;;;;;;;17.58;3.47;;;23.40;99.90;;;;;;5052409;28;20025;-62
2023/06/26 09:43:50;;;;;;;8.95;3.13;;;23.40;99.90;;;;;;5052192;28;20013;-61
2023/06/26 09:46:26;;;;;;;16.27;4.18;;;23.40;99.90;;;;;;5052115;28;20410;-60
2023/06/26 09:49:23;;;;;;;8.82;3.53;;;23.40;99.90;;;;;;5052168;28;20021;-61
2023/06/26 09:51:49;;;;;;;12.98;3.50;;;23.30;99.90;;;;;;5046523;28;20116;-61
2023/06/26 09:54:17;;;;;;;10.95;3.42;;;23.10;99.90;;;;;;5052111;28;20029;-60
2023/06/26 09:56:43;;;;;;;12.95;3.30;;;23.00;99.90;;;;;;5051904;28;20475;-59
2023/06/26 09:59:09;;;;;;;8.43;3.90;;;23.20;99.90;;;;;;5052023;28;20029;-62
2023/06/26 10:01:40;;;;;;;12.30;3.08;;;23.20;99.90;;;;;;5051923;28;20016;-61
2023/06/26 10:04:06;;;;;;;14.07;3.58;;;23.30;99.90;;;;;;5052013;28;20399;-59
2023/06/26 10:06:38;;;;;;;10.50;3.38;;;23.60;99.90;;;;;;5051723;28;20017;-61
2023/06/26 10:09:04;;;;;;;7.93;3.10;;;23.60;99.90;;;;;;5052036;28;20109;-59
2023/06/26 10:11:40;;;;;;;8.00;3.13;;;23.40;99.90;;;;;;5052018;28;20024;-59
2023/06/26 10:14:08;;;;;;;16.27;3.78;;;23.10;99.90;;;;;;5051830;28;20066;-58
2023/06/26 10:16:36;;;;;;;9.85;2.85;;;23.00;99.90;;;;;;5051600;28;20055;-59
2023/06/26 10:19:06;;;;;;;10.20;3.25;;;23.30;99.90;;;;;;5051723;28;20068;-61
2023/06/26 10:21:34;;;;;;;8.15;2.88;;;23.70;99.90;;;;;;5053672;28;20021;-60
2023/06/26 10:24:00;;;;;;;9.95;2.70;;;24.10;99.90;;;;;;5058569;28;20028;-63
2023/06/26 10:26:27;;;;;;;15.77;3.20;;;24.40;99.90;;;;;;5057857;28;20016;-61
2023/06/26 10:28:54;;;;;;;11.35;3.30;;;24.30;99.90;;;;;;5052838;28;20493;-60
2023/06/26 10:31:23;;;;;;;14.57;3.47;;;24.10;99.90;;;;;;5052081;28;20445;-61
2023/06/26 10:33:49;;;;;;;14.98;3.20;;;23.60;99.90;;;;;;5051563;28;20028;-61
2023/06/26 10:36:17;;;;;;;7.95;3.00;;;23.70;99.90;;;;;;5051679;28;20025;-61
2023/06/26 10:38:55;;;;;;;12.10;2.80;;;23.80;99.90;;;;;;5051516;28;20024;-58
2023/06/26 10:41:23;;;;;;;11.00;2.63;;;23.90;99.90;;;;;;5051622;28;20049;-57
2023/06/26 10:44:08;;;;;;;9.63;2.70;;;23.90;99.90;;;;;;5051423;28;20044;-58
2023/06/26 10:46:48;;;;;;;7.50;2.85;;;24.10;99.90;;;;;;5051218;28;20008;-55
2023/06/26 10:49:13;;;;;;;8.80;3.10;;;24.30;99.90;;;;;;5051460;28;20074;-57
2023/06/26 10:51:48;;;;;;;9.90;2.80;;;24.70;99.90;;;;;;5051317;28;20425;-59
2023/06/26 10:54:15;;;;;;;10.95;3.03;;;24.40;99.90;;;;;;5051512;28;20021;-60
2023/06/26 10:56:48;;;;;;;5.60;2.35;;;24.20;99.90;;;;;;5051118;28;20037;-59
2023/06/26 10:59:19;;;;;;;8.27;2.40;;;24.40;99.90;;;;;;5051347;28;20013;-58
2023/06/26 11:01:53;;;;;;;10.23;2.38;;;24.60;99.90;;;;;;5051381;28;20017;-59
2023/06/26 11:04:38;;;;;;;4.57;2.08;;;24.80;99.90;;;;;;5051224;28;20161;-60
2023/06/26 11:07:17;;;;;;;7.00;2.42;;;25.20;99.90;;;;;;5051196;28;20399;-60
2023/06/26 11:10:03;;;;;;;8.85;2.72;;;25.30;99.90;;;;;;5051173;28;20064;-60
2023/06/26 11:12:41;;;;;;;5.32;2.15;;;25.00;99.90;;;;;;5050985;28;20055;-60
2023/06/26 11:15:12;;;;;;;12.05;2.25;;;25.40;99.90;;;;;;5051107;28;20010;-59
2023/06/26 11:17:39;;;;;;;10.13;2.45;;;25.20;99.90;;;;;;5051006;28;20024;-56
2023/06/26 11:20:13;;;;;;;10.13;2.70;;;25.00;99.90;;;;;;5051090;28;20467;-59
2023/06/26 11:22:41;;;;;;;10.52;2.85;;;25.00;99.90;;;;;;5050997;28;20021;-60
2023/06/26 11:25:07;;;;;;;4.10;2.05;;;25.20;99.90;;;;;;5050895;28;20104;-57
2023/06/26 11:27:40;;;;;;;7.22;1.98;;;25.50;99.90;;;;;;5051189;28;20027;-59
2023/06/26 11:30:07;;;;;;;8.13;2.60;;;25.60;99.90;;;;;;5051040;28;20025;-58
2023/06/26 11:32:33;;;;;;;12.00;2.55;;;25.60;99.90;;;;;;5050909;28;20119;-59
2023/06/26 11:34:59;;;;;;;6.05;2.42;;;25.20;99.90;;;;;;5054837;28;20100;-55
2023/06/26 11:37:25;;;;;;;5.13;2.55;;;25.10;99.90;;;;;;5054708;28;20031;-54
2023/06/26 11:39:51;;;;;;;7.28;2.38;;;24.90;99.90;;;;;;5054444;28;20115;-56
2023/06/26 11:42:17;;;;;;;4.57;2.38;;;24.80;99.90;;;;;;5054592;28;20021;-59
2023/06/26 11:44:44;;;;;;;5.57;1.80;;;24.80;99.90;;;;;;5054460;28;20029;-59
2023/06/26 11:47:17;;;;;;;7.85;2.50;;;25.20;99.90;;;;;;5054495;28;20025;-57
2023/06/26 11:49:44;;;;;;;12.60;2.30;;;25.40;99.90;;;;;;5054439;28;20468;-56
2023/06/26 11:52:10;;;;;;;7.13;1.80;;;25.30;99.90;;;;;;5054514;28;20290;-56
2023/06/26 11:54:36;;;;;;;6.38;1.65;;;25.00;99.90;;;;;;5054356;28;20482;-55
2023/06/26 11:57:01;;;;;;;11.23;2.38;;;24.80;99.90;;;;;;5054201;28;20024;-58
2023/06/26 11:59:38;;;;;;;7.63;2.15;;;24.50;99.90;;;;;;5054284;28;20092;-61
2023/06/26 12:02:10;;;;;;;10.90;2.58;;;24.20;99.90;;;;;;5054425;28;20467;-59
2023/06/26 12:04:38;;;;;;;9.15;2.35;;;24.20;99.90;;;;;;5053882;28;20096;-57
2023/06/26 12:07:07;;;;;;;6.15;2.08;;;24.30;99.90;;;;;;5054149;28;20020;-59
2023/06/26 12:09:37;;;;;;;12.15;1.92;;;24.90;99.90;;;;;;5054022;28;20127;-60
2023/06/26 12:12:02;;;;;;;8.60;2.05;;;25.20;99.90;;;;;;5054177;28;20467;-58
2023/06/26 12:14:29;;;;;;;8.27;1.70;;;25.30;99.90;;;;;;5054012;28;20024;-57
2023/06/26 12:16:54;;;;;;;16.08;1.95;;;24.80;97.60;;;;;;5053687;28;20024;-58
2023/06/26 12:19:28;;;;;;;7.13;1.70;;;24.70;99.80;;;;;;5053903;28;20025;-61
2023/06/26 12:21:56;;;;;;;4.72;1.85;;;24.70;99.80;;;;;;5054011;28;20013;-56
2023/06/26 12:24:22;;;;;;;8.18;1.60;;;25.00;97.60;;;;;;5053869;28;20100;-58
2023/06/26 12:26:56;;;;;;;6.38;1.70;;;25.40;98.00;;;;;;5053622;28;20023;-59
2023/06/26 12:29:31;;;;;;;6.25;1.77;;;25.00;97.10;;;;;;5053896;28;20040;-60
2023/06/26 12:31:56;;;;;;;6.50;1.77;;;25.10;98.10;;;;;;5053896;28;20048;-56
2023/06/26 12:34:34;;;;;;;11.10;1.90;;;25.40;97.00;;;;;;5053809;28;20053;-55
2023/06/26 12:37:03;;;;;;;7.53;1.95;;;25.80;97.30;;;;;;5053518;28;20147;-58
2023/06/26 12:39:29;;;;;;;10.45;1.92;;;26.30;96.70;;;;;;5053598;28;20009;-59
2023/06/26 12:41:59;;;;;;;4.07;1.40;;;25.90;93.70;;;;;;5053450;28;20130;-54